createdAt,value
2019-04-16T00:00:24.844Z,15.03
2019-04-16T00:02:59.940Z,14.20
2019-04-16T00:05:35.803Z,14.43
2019-04-16T00:08:26.665Z,15.50
2019-04-16T00:10:55.120Z,14.38
2019-04-16T00:13:27.971Z,14.30
2019-04-16T00:15:56.973Z,14.75
2019-04-16T00:18:25.482Z,13.98
2019-04-16T00:21:14.277Z,13.93
2019-04-16T00:24:00.417Z,14.15
2019-04-16T00:26:29.191Z,14.70
2019-04-16T00:29:01.673Z,14.33
2019-04-16T00:31:28.054Z,14.35
2019-04-16T00:33:56.510Z,14.00
2019-04-16T00:36:24.990Z,15.23
2019-04-16T00:38:54.123Z,14.18
2019-04-16T00:41:23.348Z,15.10
2019-04-16T00:43:51.802Z,14.58
2019-04-16T00:46:20.308Z,15.65
2019-04-16T00:48:48.822Z,15.43
2019-04-16T00:51:17.347Z,15.75
2019-04-16T00:53:45.825Z,15.98
2019-04-16T00:56:16.240Z,15.30
2019-04-16T00:58:44.583Z,15.37
2019-04-16T01:01:13.043Z,16.55
2019-04-16T01:03:41.498Z,14.83
2019-04-16T01:06:09.952Z,15.32
2019-04-16T01:08:38.535Z,17.07
2019-04-16T01:11:06.979Z,16.07
2019-04-16T01:13:35.455Z,15.98
2019-04-16T01:16:04.212Z,16.55
2019-04-16T01:18:32.764Z,15.32
2019-04-16T01:21:01.219Z,16.02
2019-04-16T01:23:29.683Z,15.83
2019-04-16T01:25:58.190Z,15.90
2019-04-16T01:28:43.751Z,16.75
2019-04-16T01:31:28.610Z,16.15
2019-04-16T01:34:15.279Z,17.10
2019-04-16T01:36:51.405Z,17.23
2019-04-16T01:39:30.651Z,16.60
2019-04-16T01:41:59.087Z,17.30
2019-04-16T01:44:29.463Z,17.30
2019-04-16T01:46:57.797Z,16.37
2019-04-16T01:49:26.574Z,16.90
2019-04-16T01:51:55.018Z,15.20
2019-04-16T01:54:23.544Z,15.53
2019-04-16T01:56:52.031Z,15.95
2019-04-16T01:59:20.597Z,17.10
2019-04-16T02:01:49.045Z,17.25
2019-04-16T02:04:19.937Z,17.00
2019-04-16T02:06:47.690Z,17.17
2019-04-16T02:09:22.689Z,16.45
2019-04-16T02:11:46.372Z,16.40
2019-04-16T02:14:17.992Z,16.93
2019-04-16T02:16:45.135Z,17.00
2019-04-16T02:19:13.670Z,18.25
2019-04-16T02:21:42.403Z,18.27
2019-04-16T02:24:10.950Z,17.10
2019-04-16T02:26:39.382Z,18.05
2019-04-16T02:29:07.848Z,16.73
2019-04-16T02:31:36.287Z,17.30
2019-04-16T02:34:04.911Z,18.00
2019-04-16T02:36:33.454Z,16.90
2019-04-16T02:39:02.086Z,17.62
2019-04-16T02:41:30.622Z,15.10
2019-04-16T02:43:59.077Z,18.42
2019-04-16T02:46:32.067Z,18.10
2019-04-16T02:48:58.130Z,18.77
2019-04-16T02:51:31.292Z,17.15
2019-04-16T02:54:01.478Z,18.65
2019-04-16T02:56:52.033Z,13.70
2019-04-16T02:59:30.258Z,16.10
2019-04-16T03:02:17.139Z,16.00
2019-04-16T03:04:50.230Z,16.00
2019-04-16T03:07:18.675Z,16.85
2019-04-16T03:10:00.304Z,16.82
2019-04-16T03:12:17.633Z,16.10
2019-04-16T03:14:47.599Z,16.73
2019-04-16T03:17:26.300Z,15.90
2019-04-16T03:19:59.314Z,15.32
2019-04-16T03:22:30.651Z,16.40
2019-04-16T03:24:57.917Z,16.45
2019-04-16T03:27:26.506Z,15.65
2019-04-16T03:29:55.004Z,17.00
2019-04-16T03:32:23.463Z,16.17
2019-04-16T03:34:53.362Z,14.85
2019-04-16T03:37:22.533Z,14.00
2019-04-16T03:39:50.975Z,17.20
2019-04-16T03:42:19.452Z,16.12
2019-04-16T03:44:48.012Z,16.40
2019-04-16T03:47:19.388Z,18.12
2019-04-16T03:49:46.974Z,17.37
2019-04-16T03:52:15.445Z,17.67
2019-04-16T03:54:43.892Z,18.02
2019-04-16T03:57:12.433Z,16.77
2019-04-16T03:59:40.890Z,17.35
2019-04-16T04:02:09.378Z,16.73
2019-04-16T04:04:37.822Z,19.35
2019-04-16T04:07:08.799Z,18.95
2019-04-16T04:09:36.545Z,17.07
2019-04-16T04:12:05.087Z,15.90
2019-04-16T04:14:33.533Z,18.62
2019-04-16T04:17:05.218Z,16.80
2019-04-16T04:19:32.168Z,17.15
2019-04-16T04:22:00.659Z,16.85
2019-04-16T04:24:31.360Z,18.73
2019-04-16T04:26:59.289Z,17.15
2019-04-16T04:29:29.370Z,15.72
2019-04-16T04:32:03.046Z,16.85
2019-04-16T04:34:28.070Z,16.42
2019-04-16T04:36:59.721Z,17.77
2019-04-16T04:39:27.182Z,18.95
2019-04-16T04:41:56.396Z,16.57
2019-04-16T04:44:25.756Z,16.07
2019-04-16T04:46:54.242Z,18.20
2019-04-16T04:49:22.704Z,16.55
2019-04-16T04:51:51.325Z,16.52
2019-04-16T04:54:22.362Z,16.45
2019-04-16T04:56:50.030Z,16.75
2019-04-16T04:59:18.499Z,17.73
2019-04-16T05:01:47.119Z,18.30
2019-04-16T05:04:33.578Z,20.20
2019-04-16T05:07:04.901Z,16.70
2019-04-16T05:09:36.483Z,16.42
2019-04-16T05:12:03.946Z,41.13
2019-04-16T05:14:32.440Z,21.80
2019-04-16T05:17:03.637Z,18.10
2019-04-16T05:19:31.250Z,16.55
2019-04-16T05:21:59.766Z,17.02
2019-04-16T05:24:29.198Z,16.37
2019-04-16T05:26:58.454Z,16.60
2019-04-16T05:29:26.941Z,16.30
2019-04-16T05:31:57.444Z,14.87
2019-04-16T05:34:25.641Z,14.60
2019-04-16T05:36:54.164Z,16.00
2019-04-16T05:39:24.380Z,16.87
2019-04-16T05:41:53.089Z,14.90
2019-04-16T05:44:33.184Z,14.13
2019-04-16T05:46:58.757Z,14.13
2019-04-16T05:49:27.233Z,14.05
2019-04-16T05:51:55.715Z,14.85
2019-04-16T05:54:25.850Z,14.75
2019-04-16T05:57:11.959Z,20.52
2019-04-16T05:59:40.514Z,16.00
2019-04-16T06:02:28.997Z,15.72
2019-04-16T06:04:57.462Z,14.68
2019-04-16T06:07:25.947Z,14.10
2019-04-16T06:09:54.434Z,13.38
2019-04-16T06:12:27.433Z,14.10
2019-04-16T06:14:57.551Z,17.17
2019-04-16T06:17:32.134Z,16.50
2019-04-16T06:20:02.187Z,17.95
2019-04-16T06:22:48.107Z,18.67
2019-04-16T06:25:27.277Z,16.77
2019-04-16T06:28:13.662Z,16.93
2019-04-16T06:30:47.026Z,20.17
2019-04-16T06:33:17.204Z,20.48
2019-04-16T06:35:59.562Z,17.12
2019-04-16T06:38:32.362Z,16.00
2019-04-16T06:41:05.452Z,17.60
2019-04-16T06:43:35.554Z,23.95
2019-04-16T06:46:08.473Z,18.87
2019-04-16T06:48:52.652Z,20.12
2019-04-16T06:51:43.549Z,17.17
2019-04-16T06:54:32.064Z,19.60
2019-04-16T06:57:17.149Z,19.00
2019-04-16T06:59:53.220Z,20.62
2019-04-16T07:02:26.353Z,18.27
2019-04-16T07:05:12.799Z,18.48
2019-04-16T07:08:01.078Z,19.52
2019-04-16T07:10:43.781Z,18.05
2019-04-16T07:13:01.607Z,16.30
2019-04-16T07:15:30.128Z,19.52
2019-04-16T07:17:58.670Z,20.48
2019-04-16T07:20:27.136Z,18.02
2019-04-16T07:22:55.677Z,17.25
2019-04-16T07:25:27.390Z,19.20
2019-04-16T07:27:59.186Z,12.37
2019-04-16T07:30:29.465Z,17.07
2019-04-16T07:33:02.660Z,18.90
2019-04-16T07:35:32.758Z,21.02
2019-04-16T07:38:07.425Z,20.88
2019-04-16T07:40:54.283Z,19.07
2019-04-16T07:43:40.867Z,18.98
2019-04-16T07:46:20.436Z,18.70
2019-04-16T07:48:51.473Z,19.07
2019-04-16T07:51:22.434Z,18.37
2019-04-16T07:54:10.972Z,18.75
2019-04-16T07:56:41.147Z,17.80
2019-04-16T07:59:09.891Z,20.52
2019-04-16T08:01:38.479Z,18.52
2019-04-16T08:04:06.949Z,18.48
2019-04-16T08:06:35.484Z,17.60
2019-04-16T08:09:05.715Z,17.52
2019-04-16T08:11:34.231Z,20.10
2019-04-16T08:14:02.784Z,17.95
2019-04-16T08:16:31.453Z,18.85
2019-04-16T08:18:59.929Z,19.70
2019-04-16T08:21:28.367Z,18.67
2019-04-16T08:24:04.244Z,21.30
2019-04-16T08:26:32.722Z,21.68
2019-04-16T08:29:01.439Z,17.42
2019-04-16T08:31:33.093Z,18.48
2019-04-16T08:34:01.520Z,20.80
2019-04-16T08:36:30.091Z,20.10
2019-04-16T08:38:58.626Z,19.00
2019-04-16T08:41:46.445Z,19.55
2019-04-16T08:44:14.888Z,21.20
2019-04-16T08:46:43.562Z,19.00
2019-04-16T08:49:14.678Z,19.57
2019-04-16T08:51:42.279Z,21.60
2019-04-16T08:54:10.791Z,19.73
2019-04-16T08:56:39.371Z,17.37
2019-04-16T08:59:10.951Z,20.97
2019-04-16T09:01:38.347Z,22.07
2019-04-16T09:04:06.779Z,19.50
2019-04-16T09:06:35.434Z,17.60
2019-04-16T09:09:14.631Z,19.50
2019-04-16T09:11:39.679Z,18.80
2019-04-16T09:14:08.618Z,19.82
2019-04-16T09:16:53.773Z,20.40
2019-04-16T09:19:23.258Z,19.82
2019-04-16T09:21:51.727Z,18.62
2019-04-16T09:24:21.849Z,19.50
2019-04-16T09:27:04.471Z,20.12
2019-04-16T09:29:51.005Z,19.20
2019-04-16T09:32:32.903Z,21.15
2019-04-16T09:35:20.035Z,20.97
2019-04-16T09:38:09.360Z,18.55
2019-04-16T09:40:56.214Z,20.52
2019-04-16T09:43:29.354Z,19.77
2019-04-16T09:46:09.641Z,20.72
2019-04-16T09:48:28.240Z,20.77
2019-04-16T09:50:56.703Z,18.75
2019-04-16T09:53:33.588Z,20.65
2019-04-16T09:55:55.515Z,20.05
2019-04-16T09:58:25.241Z,21.00
2019-04-16T10:01:04.260Z,20.80
2019-04-16T10:03:34.387Z,19.92
2019-04-16T10:06:05.603Z,21.10
2019-04-16T10:08:33.072Z,17.03
2019-04-16T10:11:05.798Z,22.58
2019-04-16T10:13:35.900Z,21.57
2019-04-16T10:16:02.345Z,20.75
2019-04-16T10:18:34.823Z,18.10
2019-04-16T10:21:00.983Z,19.03
2019-04-16T10:23:39.886Z,20.23
2019-04-16T10:26:08.451Z,20.92
2019-04-16T10:28:38.698Z,20.82
2019-04-16T10:31:13.329Z,17.82
2019-04-16T10:33:42.138Z,20.77
2019-04-16T10:36:10.744Z,20.02
2019-04-16T10:38:50.010Z,19.65
2019-04-16T10:41:35.103Z,19.52
2019-04-16T10:44:19.137Z,17.40
2019-04-16T10:46:49.303Z,18.90
2019-04-16T10:49:25.571Z,20.80
2019-04-16T10:52:07.942Z,19.62
2019-04-16T10:54:40.703Z,20.05
2019-04-16T10:57:26.142Z,21.10
2019-04-16T11:00:08.451Z,19.05
2019-04-16T11:02:44.614Z,22.20
2019-04-16T11:05:15.228Z,21.37
2019-04-16T11:07:46.744Z,21.37
2019-04-16T11:10:15.441Z,21.27
2019-04-16T11:12:44.939Z,21.37
2019-04-16T11:15:15.631Z,20.85
2019-04-16T11:17:44.189Z,20.43
2019-04-16T11:20:12.773Z,20.10
2019-04-16T11:22:41.324Z,20.40
2019-04-16T11:25:10.072Z,21.90
2019-04-16T11:27:38.527Z,19.25
2019-04-16T11:30:09.821Z,20.50
2019-04-16T11:32:39.915Z,22.40
2019-04-16T11:35:08.700Z,23.27
2019-04-16T11:37:37.250Z,19.12
2019-04-16T11:40:06.303Z,18.85
2019-04-16T11:42:34.910Z,20.30
2019-04-16T11:45:05.273Z,18.48
2019-04-16T11:47:34.864Z,17.23
2019-04-16T11:50:05.555Z,18.98
2019-04-16T11:52:35.298Z,18.17
2019-04-16T11:55:05.167Z,19.85
2019-04-16T11:57:34.108Z,19.70
2019-04-16T12:00:07.479Z,20.75
2019-04-16T12:02:46.221Z,21.25
2019-04-16T12:05:16.696Z,21.57
2019-04-16T12:07:49.692Z,19.85
2019-04-16T12:10:36.532Z,19.65
2019-04-16T12:13:19.150Z,19.27
2019-04-16T12:15:49.419Z,15.85
2019-04-16T12:18:31.790Z,19.02
2019-04-16T12:21:00.383Z,21.52
2019-04-16T12:23:39.760Z,20.00
2019-04-16T12:26:15.979Z,20.45
2019-04-16T12:29:01.364Z,21.80
2019-04-16T12:31:36.939Z,20.23
2019-04-16T12:34:16.389Z,20.95
2019-04-16T12:36:52.643Z,22.32
2019-04-16T12:39:25.610Z,21.80
2019-04-16T12:42:02.053Z,20.45
2019-04-16T12:44:45.794Z,17.10
2019-04-16T12:47:13.085Z,16.50
2019-04-16T12:50:01.366Z,13.63
2019-04-16T12:52:48.106Z,15.05
2019-04-16T12:55:23.695Z,15.10
2019-04-16T12:58:02.077Z,16.25
2019-04-16T13:00:41.178Z,14.73
2019-04-16T13:03:16.409Z,15.08
2019-04-16T13:05:50.954Z,15.63
2019-04-16T13:08:36.003Z,16.17
2019-04-16T13:11:15.378Z,14.95
2019-04-16T13:14:01.545Z,14.25
2019-04-16T13:16:49.767Z,12.37
2019-04-16T13:19:31.532Z,15.90
2019-04-16T13:22:00.690Z,13.80
2019-04-16T13:24:45.973Z,14.50
2019-04-16T13:27:16.129Z,15.50
2019-04-16T13:29:44.938Z,14.73
2019-04-16T13:32:13.467Z,12.68
2019-04-16T13:34:41.939Z,15.88
2019-04-16T13:37:10.550Z,15.78
2019-04-16T13:39:43.448Z,15.53
2019-04-16T13:42:11.908Z,17.07
2019-04-16T13:44:47.903Z,14.23
2019-04-16T13:47:16.481Z,15.85
2019-04-16T13:49:49.866Z,16.60
2019-04-16T13:52:20.446Z,14.70
2019-04-16T13:54:53.135Z,15.90
2019-04-16T13:57:23.283Z,16.32
2019-04-16T14:00:04.727Z,15.95
2019-04-16T14:02:35.766Z,14.35
2019-04-16T14:05:05.781Z,12.93
2019-04-16T14:07:34.348Z,10.57
2019-04-16T14:10:03.201Z,12.53
2019-04-16T14:12:41.711Z,14.00
2019-04-16T14:15:05.706Z,16.05
2019-04-16T14:17:34.983Z,14.28
2019-04-16T14:20:02.659Z,12.75
2019-04-16T14:22:31.113Z,11.12
2019-04-16T14:24:59.636Z,11.30
2019-04-16T14:27:28.206Z,10.68
2019-04-16T14:29:59.124Z,12.20
2019-04-16T14:32:27.006Z,12.85
2019-04-16T14:35:00.098Z,11.40
2019-04-16T14:37:28.941Z,12.30
2019-04-16T14:39:59.139Z,13.62
2019-04-16T14:42:27.681Z,12.07
2019-04-16T14:44:57.795Z,10.48
2019-04-16T14:47:26.763Z,10.10
2019-04-16T14:49:55.261Z,10.35
2019-04-16T14:52:23.790Z,8.85
2019-04-16T14:54:54.584Z,12.28
2019-04-16T15:00:01.902Z,11.28
2019-04-16T15:02:34.931Z,10.70
2019-04-16T15:05:06.081Z,10.08
2019-04-16T15:07:52.759Z,9.18
2019-04-16T15:10:37.915Z,8.48
2019-04-16T15:13:24.360Z,8.45
2019-04-16T15:16:08.305Z,7.78
2019-04-16T15:18:29.184Z,8.45
2019-04-16T15:21:03.644Z,8.05
2019-04-16T15:23:39.575Z,8.03
2019-04-16T15:26:15.486Z,8.05
2019-04-16T15:28:48.413Z,8.08
2019-04-16T15:31:33.741Z,8.03
2019-04-16T15:34:13.033Z,7.12
2019-04-16T15:36:43.242Z,6.87
2019-04-16T15:39:13.442Z,6.17
2019-04-16T15:42:00.205Z,5.77
2019-04-16T15:44:33.366Z,5.42
2019-04-16T15:47:06.581Z,5.17
2019-04-16T15:49:49.691Z,5.25
2019-04-16T15:52:26.101Z,5.35
2019-04-16T15:55:02.146Z,4.40
2019-04-16T15:57:41.063Z,4.25
2019-04-16T16:00:24.173Z,4.28
2019-04-16T16:03:10.888Z,4.95
2019-04-16T16:05:44.186Z,4.12
2019-04-16T16:08:17.306Z,4.12
2019-04-16T16:10:56.401Z,4.40
2019-04-16T16:13:26.439Z,4.30
2019-04-16T16:15:55.656Z,4.22
2019-04-16T16:18:24.378Z,3.30
2019-04-16T16:20:52.960Z,3.65
2019-04-16T16:23:21.430Z,3.58
2019-04-16T16:25:49.898Z,3.70
2019-04-16T16:28:18.408Z,3.65
2019-04-16T16:30:46.909Z,3.00
2019-04-16T16:33:15.447Z,4.37
2019-04-16T16:35:57.114Z,3.65
2019-04-16T16:38:14.939Z,3.83
2019-04-16T16:40:43.652Z,3.62
2019-04-16T16:43:14.111Z,3.20
2019-04-16T16:45:53.099Z,3.27
2019-04-16T16:48:22.366Z,3.72
2019-04-16T16:50:51.774Z,3.35
2019-04-16T16:53:31.366Z,3.20
2019-04-16T16:56:01.557Z,3.47
2019-04-16T16:58:38.076Z,3.50
2019-04-16T17:01:08.339Z,4.10
2019-04-16T17:03:42.216Z,3.72
2019-04-16T17:06:12.482Z,3.80
2019-04-16T17:08:41.108Z,3.43
2019-04-16T17:11:16.497Z,3.80
2019-04-16T17:13:39.828Z,4.53
2019-04-16T17:16:13.310Z,4.03
2019-04-16T17:18:38.579Z,3.72
2019-04-16T17:21:07.114Z,4.00
2019-04-16T17:23:35.571Z,3.92
2019-04-16T17:26:04.209Z,3.62
2019-04-16T17:28:32.795Z,3.58
2019-04-16T17:31:01.247Z,3.70
2019-04-16T17:33:29.969Z,4.60
2019-04-16T17:35:58.480Z,4.05
2019-04-16T17:38:27.039Z,4.28
2019-04-16T17:40:59.128Z,5.08
2019-04-16T17:43:35.151Z,4.45
2019-04-16T17:46:24.776Z,5.50
2019-04-16T17:49:09.266Z,5.85
2019-04-16T17:51:39.375Z,5.72
2019-04-16T17:54:18.182Z,5.58
2019-04-16T17:57:00.245Z,5.53
2019-04-16T17:59:30.337Z,5.55
2019-04-16T18:02:15.783Z,5.47
2019-04-16T18:05:01.920Z,5.00
2019-04-16T18:07:34.937Z,4.95
2019-04-16T18:10:16.017Z,5.25
2019-04-16T18:12:59.745Z,4.97
2019-04-16T18:15:33.106Z,6.15
2019-04-16T18:18:08.914Z,6.30
2019-04-16T18:20:39.118Z,5.20
2019-04-16T18:23:21.756Z,5.43
2019-04-16T18:25:57.394Z,5.47
2019-04-16T18:28:43.414Z,6.35
2019-04-16T18:31:14.243Z,5.28
2019-04-16T18:33:59.494Z,4.87
2019-04-16T18:36:29.751Z,5.72
2019-04-16T18:39:03.976Z,6.07
2019-04-16T18:41:35.935Z,4.90
2019-04-16T18:44:06.760Z,5.22
2019-04-16T18:46:40.270Z,5.70
2019-04-16T18:49:10.523Z,5.70
2019-04-16T18:51:40.718Z,4.63
2019-04-16T18:54:09.648Z,6.45
2019-04-16T18:56:38.684Z,5.58
2019-04-16T18:59:07.263Z,6.42
2019-04-16T19:01:37.361Z,5.97
2019-04-16T19:04:06.000Z,3.90
2019-04-16T19:06:34.703Z,6.20
2019-04-16T19:09:03.581Z,6.40
2019-04-16T19:11:32.178Z,5.92
2019-04-16T19:14:00.751Z,5.97
2019-04-16T19:16:29.432Z,5.65
2019-04-16T19:18:57.991Z,6.03
2019-04-16T19:21:26.437Z,6.87
2019-04-16T19:23:54.923Z,6.50
2019-04-16T19:26:23.639Z,7.30
2019-04-16T19:28:52.262Z,6.37
2019-04-16T19:31:23.093Z,6.78
2019-04-16T19:33:51.199Z,6.67
2019-04-16T19:36:24.764Z,7.22
2019-04-16T19:38:50.146Z,6.10
2019-04-16T19:41:23.356Z,6.25
2019-04-16T19:43:50.512Z,6.40
2019-04-16T19:46:19.294Z,6.35
2019-04-16T19:48:48.131Z,6.70
2019-04-16T19:51:19.649Z,6.67
2019-04-16T19:53:47.734Z,6.20
2019-04-16T19:56:18.714Z,6.60
2019-04-16T19:58:48.141Z,6.80
2019-04-16T20:01:17.814Z,6.45
2019-04-16T20:03:46.268Z,6.60
2019-04-16T20:06:14.968Z,6.05
2019-04-16T20:08:43.497Z,7.15
2019-04-16T20:11:12.154Z,6.85
2019-04-16T20:13:40.815Z,6.70
2019-04-16T20:16:09.311Z,6.28
2019-04-16T20:18:50.198Z,6.42
2019-04-16T20:21:08.023Z,6.37
2019-04-16T20:23:36.594Z,7.00
2019-04-16T20:26:05.489Z,7.78
2019-04-16T20:28:34.315Z,8.05
2019-04-16T20:31:04.329Z,7.60
2019-04-16T20:33:33.075Z,7.83
2019-04-16T20:36:01.755Z,9.13
2019-04-16T20:38:30.267Z,8.83
2019-04-16T20:40:58.859Z,7.97
2019-04-16T20:43:27.485Z,7.90
2019-04-16T20:45:56.034Z,7.70
2019-04-16T20:48:24.593Z,7.42
2019-04-16T20:50:56.690Z,7.92
2019-04-16T20:53:23.441Z,9.53
2019-04-16T20:55:51.985Z,8.45
2019-04-16T20:58:20.441Z,8.15
2019-04-16T21:00:50.595Z,7.97
2019-04-16T21:03:22.359Z,8.10
2019-04-16T21:05:58.935Z,8.03
2019-04-16T21:08:25.224Z,7.65
2019-04-16T21:10:54.368Z,8.13
2019-04-16T21:13:23.392Z,8.73
2019-04-16T21:15:51.911Z,8.63
2019-04-16T21:18:20.401Z,9.35
2019-04-16T21:20:51.202Z,9.60
2019-04-16T21:23:19.208Z,9.40
2019-04-16T21:25:47.647Z,8.38
2019-04-16T21:28:29.775Z,8.00
2019-04-16T21:30:59.960Z,8.58
2019-04-16T21:33:36.339Z,8.20
2019-04-16T21:36:06.498Z,6.87
2019-04-16T21:38:45.200Z,6.83
2019-04-16T21:41:12.605Z,6.20
2019-04-16T21:43:41.120Z,6.78
2019-04-16T21:46:09.624Z,7.33
2019-04-16T21:48:38.258Z,5.92
2019-04-16T21:51:06.767Z,6.08
2019-04-16T21:53:35.309Z,6.15
2019-04-16T21:56:07.818Z,5.22
2019-04-16T21:58:34.043Z,5.30
2019-04-16T22:01:05.134Z,5.10
2019-04-16T22:03:38.591Z,7.00
2019-04-16T22:06:06.178Z,5.67
2019-04-16T22:08:34.692Z,6.75
2019-04-16T22:11:03.268Z,5.80
2019-04-16T22:13:31.704Z,5.90
2019-04-16T22:16:00.238Z,5.90
2019-04-16T22:18:28.675Z,6.40
2019-04-16T22:20:57.744Z,5.90
2019-04-16T22:23:26.348Z,5.37
2019-04-16T22:25:57.141Z,6.80
2019-04-16T22:28:25.088Z,5.90
2019-04-16T22:30:53.702Z,5.95
2019-04-16T22:33:22.127Z,6.05
2019-04-16T22:35:50.605Z,6.08
2019-04-16T22:38:19.205Z,5.55
2019-04-16T22:40:51.597Z,5.87
2019-04-16T22:43:36.408Z,5.90
2019-04-16T22:46:12.871Z,6.50
2019-04-16T22:48:43.211Z,6.17
2019-04-16T22:51:11.769Z,6.63
2019-04-16T22:53:40.219Z,5.62
2019-04-16T22:56:08.932Z,8.25
2019-04-16T22:58:51.034Z,6.58
2019-04-16T23:01:21.423Z,7.28
2019-04-16T23:03:53.483Z,6.58
2019-04-16T23:06:20.150Z,5.90
2019-04-16T23:08:48.605Z,6.78
2019-04-16T23:11:17.122Z,7.28
2019-04-16T23:13:45.625Z,7.05
2019-04-16T23:16:14.115Z,7.08
2019-04-16T23:18:42.561Z,7.25
2019-04-16T23:21:11.514Z,7.97
2019-04-16T23:23:40.119Z,7.30
2019-04-16T23:26:08.583Z,8.60
2019-04-16T23:28:39.774Z,7.95
2019-04-16T23:31:07.218Z,8.63
2019-04-16T23:33:35.677Z,7.92
2019-04-16T23:36:04.530Z,8.23
2019-04-16T23:38:33.112Z,8.30
2019-04-16T23:41:01.729Z,9.03
2019-04-16T23:43:43.768Z,9.45
2019-04-16T23:46:29.759Z,9.60
2019-04-16T23:49:05.946Z,9.80
2019-04-16T23:51:52.579Z,9.00
2019-04-16T23:54:22.690Z,10.23
2019-04-16T23:56:55.778Z,10.25
2019-04-16T23:59:32.691Z,11.55
